• Join FlightAware (Why Join?)
  • Login
  • US Flag 
01:43AM EDT


 

Airport Tracker/Info


-or-


 

Live Flight TrackerFlight Track Log ✈ AAR8736 ✈ 22-Aug-2013 ✈ RKJY / RSU - RKSS / GMP

Flight Track Log - Related Links

Times and Time Zones

All times are in EDT time to prevent confusion due to time zone crossing. See the AAR8736 flight status page for this flight to view local times or setup timezone preferences in your user account.

Time Position Orientation Groundspeed Altitude Reporting Facility
EDT Latitude Longitude Course Direction KTS MPH feet Rate Location/Type
03:49AM 35.0804 127.5447 346° North  Level Estimated
03:50AM 35.1606 127.5210 346° North  Level Estimated
03:51AM 35.2408 127.4973 346° North  Level Estimated
03:52AM 35.3210 127.4736 346° North  Level Estimated
03:53AM 35.4011 127.4498 346° North  Level Estimated
03:54AM 35.4813 127.4259 346° North  Level Estimated
03:55AM 35.5615 127.4020 346° North  Level Estimated
03:56AM 35.6417 127.3781 346° North  Level Estimated
03:57AM 35.7218 127.3541 346° North  Level Estimated
03:58AM 35.8020 127.3301 346° North  Level Estimated
03:59AM 35.8821 127.3060 346° North  Level Estimated
04:00AM 35.9623 127.2819 346° North  Level Estimated
04:01AM 36.0424 127.2577 346° North  Level Estimated
04:02AM 36.1226 127.2335 346° North  Level Estimated
04:03AM 36.2027 127.2092 346° North  Level Estimated
04:04AM 36.2828 127.1849 346° North  Level Estimated
04:05AM 36.3629 127.1605 346° North  Level Estimated
04:06AM 36.4431 127.1361 346° North  Level Estimated
04:07AM 36.5232 127.1116 346° North  Level Estimated
04:08AM 36.6033 127.0871 346° North  Level Estimated
04:09AM 36.6834 127.0625 346° North  Level Estimated
04:10AM 36.7635 127.0379 346° North  Level Estimated
04:11AM 36.8436 127.0132 346° North  Level Estimated
04:12AM 36.9237 126.9885 346° North  Level Estimated
04:13AM 37.0037 126.9637 346° North  Level Estimated
04:14AM 37.0838 126.9389 346° North  Level Estimated
04:15AM 37.1639 126.9140 346° North  Level Estimated
04:16AM 37.2440 126.8890 346° North  Level Estimated
04:17AM 37.3240 126.8640 346° North  Level Estimated
04:18AM 37.4041 126.8390 346° North  Level Estimated
04:19AM 37.4841 126.8139 346° North  Level Estimated
04:20AM 37.5583 126.7906 346° North  Level Estimated
04:21AM 37.5583 126.7906 288° West  Level Estimated
04:22AM 37.5583 126.7906 288° West  Level Estimated
04:23AM 37.5583 126.7906 288° West  Level Estimated
04:24AM 37.5583 126.7906 288° West  Level Estimated
04:25AM 37.5583 126.7906 288° West  Level Estimated
04:26AM 37.5583 126.7906 288° West  Level Estimated
04:27AM 37.5583 126.7906 288° West  Level Estimated
04:28AM 37.5583 126.7906 288° West  Level Estimated
04:29AM 37.5583 126.7906 288° West  Level Estimated
04:30AM 37.5583 126.7906 288° West  Level Estimated
04:31AM 37.5583 126.7906 288° West  Level Estimated
04:32AM 37.5583 126.7906 288° West  Level Estimated
04:33AM 37.5583 126.7906 288° West  Level Estimated
04:34AM 37.5583 126.7906 288° West  Level Estimated
04:35AM 37.5583 126.7906 288° West  Level Estimated
04:36AM 37.5583 126.7906 288° West  Level Estimated